KCAD/CAD METAR and TAF weather

Enter ICAO airport designator
Station Type Date Time Source
KCAD METAR 2019/08/17 10:36 UTC NOAA

KCAD 171036Z AUTO 27003KT 7SM OVC004 18/16 A2984 RMK AO2 T01810165


Station Type Date Time Source
KCAD Decoded METAR 2019/08/17 10:36 UTC NOAA

Station name not available
Aug 17, 2019 - 06:36 AM EDT / 2019.08.17 1036 UTC
Wind: from the W (270 degrees) at 3 MPH (3 KT):0
Visibility: 7 mile(s):0
Sky conditions: overcast
Temperature: 64.6 F (18.1 C)
Dew Point: 61.7 F (16.5 C)
Relative Humidity: 90%
Pressure (altimeter): 29.84 in. Hg (1010 hPa)
ob: KCAD 171036Z AUTO 27003KT 7SM OVC004 18/16 A2984 RMK AO2 T01810165
cycle: 10

Station Type Date Time Source
KCAD TAF UTC NOAA

Error!

Example: see airport list